Time;durP1;ratioP1;P1;durP2;ratioP2;P2;SDS_P1;SDS_P2;PMS_P1;PMS_P2;Temp;Humidity;BMP_temperature;BMP_pressure;BME280_temperature;BME280_humidity;BME280_pressure;Samples;Min_cycle;Max_cycle;Signal;HPM_P1;HPM_P2
2022/10/10 00:02:20;;;;;;;7.07;3.20;;;10.10;99.90;;;;;;5016996;28;20461;-65
2022/10/10 00:04:48;;;;;;;6.70;3.03;;;10.10;99.90;;;;;;5018154;28;20456;-65
2022/10/10 00:07:15;;;;;;;9.23;3.10;;;10.10;99.90;;;;;;5017145;28;20460;-64
2022/10/10 00:09:43;;;;;;;5.20;2.97;;;10.10;99.90;;;;;;5017507;28;20922;-65
2022/10/10 00:12:10;;;;;;;7.60;2.60;;;10.10;99.90;;;;;;5017109;28;20568;-65
2022/10/10 00:14:37;;;;;;;4.17;2.60;;;10.00;99.90;;;;;;5016167;28;20480;-65
2022/10/10 00:17:03;;;;;;;6.20;2.77;;;10.00;99.90;;;;;;5016452;28;20788;-65
2022/10/10 00:19:30;;;;;;;4.23;3.03;;;10.00;99.90;;;;;;5016351;28;20460;-65
2022/10/10 00:21:59;;;;;;;4.77;2.70;;;10.00;99.90;;;;;;5017048;28;20535;-64
2022/10/10 00:24:26;;;;;;;3.30;2.60;;;10.00;99.90;;;;;;5016516;28;20496;-64
2022/10/10 00:26:53;;;;;;;3.83;2.90;;;10.00;99.90;;;;;;5016174;28;20522;-65
2022/10/10 00:29:19;;;;;;;3.57;2.70;;;10.00;99.90;;;;;;5016172;28;20456;-65
2022/10/10 00:31:46;;;;;;;5.40;2.80;;;9.90;99.90;;;;;;5015817;28;20937;-65
2022/10/10 00:34:13;;;;;;;5.40;2.83;;;9.90;99.90;;;;;;5015783;28;20520;-65
2022/10/10 00:36:40;;;;;;;4.70;3.30;;;9.90;99.90;;;;;;5015933;28;20457;-65
2022/10/10 00:39:08;;;;;;;4.40;2.90;;;9.80;99.90;;;;;;5016225;28;20484;-65
2022/10/10 00:41:35;;;;;;;6.30;2.80;;;9.80;99.90;;;;;;5015824;28;20511;-66
2022/10/10 00:44:04;;;;;;;4.43;2.77;;;9.80;99.90;;;;;;5015500;28;20492;-66
2022/10/10 00:46:31;;;;;;;5.53;2.90;;;9.80;99.90;;;;;;5015567;28;20461;-65
2022/10/10 00:48:59;;;;;;;6.60;3.03;;;9.80;99.90;;;;;;5015792;28;20489;-65
2022/10/10 00:51:26;;;;;;;5.23;2.50;;;9.70;99.90;;;;;;5015626;28;20504;-66
2022/10/10 00:53:56;;;;;;;4.10;3.20;;;9.70;99.90;;;;;;5015582;28;20480;-66
2022/10/10 00:56:28;;;;;;;4.70;2.40;;;9.60;99.90;;;;;;5015328;28;20489;-66
2022/10/10 00:58:57;;;;;;;5.10;3.17;;;9.60;99.90;;;;;;5015842;28;20477;-65
2022/10/10 01:01:24;;;;;;;3.90;2.60;;;9.60;99.90;;;;;;5015519;28;20527;-65
2022/10/10 01:03:53;;;;;;;8.43;3.43;;;9.60;99.90;;;;;;5015754;28;20519;-66
2022/10/10 01:06:20;;;;;;;5.63;3.20;;;9.60;99.90;;;;;;5015762;28;20788;-65
2022/10/10 01:08:47;;;;;;;4.57;3.30;;;9.50;99.90;;;;;;5015587;28;20457;-65
2022/10/10 01:11:42;;;;;;;7.07;3.10;;;9.50;99.90;;;;;;5015580;28;20461;-65
2022/10/10 01:14:23;;;;;;;6.87;3.70;;;9.50;99.90;;;;;;5014730;28;20480;-64
2022/10/10 01:16:58;;;;;;;4.00;3.13;;;9.40;99.90;;;;;;5015477;28;20441;-65
2022/10/10 01:19:48;;;;;;;5.47;3.00;;;9.40;99.90;;;;;;5015427;28;20441;-64
2022/10/10 01:22:28;;;;;;;5.80;3.10;;;9.40;99.90;;;;;;5015032;28;20506;-67
2022/10/10 01:25:00;;;;;;;4.27;3.00;;;9.40;99.90;;;;;;5015338;28;20571;-65
2022/10/10 01:27:33;;;;;;;9.77;3.50;;;9.30;99.90;;;;;;5015361;28;20445;-65
2022/10/10 01:30:08;;;;;;;4.03;3.03;;;9.30;99.90;;;;;;5015347;28;20452;-65
2022/10/10 01:32:39;;;;;;;8.20;2.53;;;9.30;99.90;;;;;;5015262;28;20445;-65
2022/10/10 01:35:41;;;;;;;4.10;3.23;;;9.30;99.90;;;;;;5015135;28;20564;-65
2022/10/10 01:38:19;;;;;;;4.43;2.87;;;9.30;99.90;;;;;;5014932;28;20511;-65
2022/10/10 01:40:51;;;;;;;5.37;3.10;;;9.30;99.90;;;;;;5015533;28;20452;-65
2022/10/10 01:43:18;;;;;;;4.37;2.60;;;9.30;99.90;;;;;;5015210;28;20528;-66
2022/10/10 01:45:49;;;;;;;4.27;2.73;;;9.30;99.90;;;;;;5015163;28;20481;-65
2022/10/10 01:48:19;;;;;;;7.20;3.10;;;9.30;99.90;;;;;;5014807;28;20473;-65
2022/10/10 01:51:05;;;;;;;4.77;2.70;;;9.30;99.90;;;;;;5015375;28;20453;-65
2022/10/10 01:53:42;;;;;;;7.40;3.40;;;9.30;99.90;;;;;;5014762;28;20472;-65
2022/10/10 01:56:14;;;;;;;4.43;3.23;;;9.20;99.90;;;;;;5014592;28;20492;-66
2022/10/10 01:59:01;;;;;;;4.50;3.03;;;9.20;99.90;;;;;;5014896;28;20460;-66
2022/10/10 02:01:36;;;;;;;7.40;3.13;;;9.20;99.90;;;;;;5014604;28;20842;-66
2022/10/10 02:04:09;;;;;;;3.93;3.03;;;9.20;99.90;;;;;;5014501;28;20881;-66
2022/10/10 02:06:41;;;;;;;5.60;3.50;;;9.20;99.90;;;;;;5014474;28;20473;-66
2022/10/10 02:09:14;;;;;;;5.00;2.80;;;9.20;99.90;;;;;;5014378;28;20449;-66
2022/10/10 02:11:42;;;;;;;7.40;3.70;;;9.20;99.90;;;;;;5014599;28;20940;-66
2022/10/10 02:14:15;;;;;;;8.00;3.90;;;9.10;99.90;;;;;;5013998;28;20480;-66
2022/10/10 02:16:46;;;;;;;3.73;2.60;;;9.10;99.90;;;;;;5014187;28;20499;-66
2022/10/10 02:19:17;;;;;;;5.50;3.27;;;9.10;99.90;;;;;;5014956;28;20549;-66
2022/10/10 02:21:46;;;;;;;8.13;3.67;;;9.10;99.90;;;;;;5014771;28;20455;-66
2022/10/10 02:24:15;;;;;;;4.57;3.00;;;9.10;99.90;;;;;;5014100;28;20457;-66
2022/10/10 02:26:46;;;;;;;5.23;3.00;;;9.10;99.90;;;;;;5017676;28;20460;-66
2022/10/10 02:29:18;;;;;;;6.93;3.37;;;9.10;99.90;;;;;;5018231;28;20532;-66
2022/10/10 02:31:53;;;;;;;8.40;3.30;;;9.00;99.90;;;;;;5018219;28;20528;-66
2022/10/10 02:34:24;;;;;;;4.93;3.40;;;9.00;99.90;;;;;;5018463;28;20538;-66
2022/10/10 02:36:55;;;;;;;4.20;3.20;;;9.00;99.90;;;;;;5018459;28;20831;-66
2022/10/10 02:39:26;;;;;;;4.40;3.00;;;9.00;99.90;;;;;;5017954;28;20551;-65
2022/10/10 02:41:53;;;;;;;3.60;3.00;;;9.00;99.90;;;;;;5017943;28;20468;-65
2022/10/10 02:44:21;;;;;;;5.77;3.27;;;9.00;99.90;;;;;;5018068;28;20626;-65
2022/10/10 02:46:49;;;;;;;4.57;3.27;;;8.90;99.90;;;;;;5018130;28;20519;-65
2022/10/10 02:49:23;;;;;;;6.80;3.20;;;8.90;99.90;;;;;;5018077;28;20497;-65
2022/10/10 02:51:50;;;;;;;6.77;3.40;;;8.90;99.90;;;;;;5018176;28;20445;-65
2022/10/10 02:54:17;;;;;;;4.80;3.17;;;8.80;99.90;;;;;;5017849;28;20550;-65
2022/10/10 02:56:44;;;;;;;7.17;3.10;;;8.90;99.90;;;;;;5017402;28;20489;-65
2022/10/10 02:59:11;;;;;;;5.07;3.37;;;8.90;99.90;;;;;;5017630;28;20461;-66
2022/10/10 03:01:38;;;;;;;6.17;3.53;;;8.90;99.90;;;;;;5017707;28;20501;-66
2022/10/10 03:04:06;;;;;;;4.60;3.00;;;8.90;99.90;;;;;;5017856;28;20905;-65
2022/10/10 03:06:33;;;;;;;6.50;3.33;;;8.80;99.90;;;;;;5017572;28;20460;-65
2022/10/10 03:09:00;;;;;;;4.83;3.27;;;8.80;99.90;;;;;;5017452;28;20457;-65
2022/10/10 03:11:27;;;;;;;7.50;3.40;;;8.80;99.90;;;;;;5017303;28;20460;-65
2022/10/10 03:13:54;;;;;;;6.30;3.07;;;8.80;99.90;;;;;;5017404;28;20461;-65
2022/10/10 03:16:21;;;;;;;5.97;3.50;;;8.90;99.90;;;;;;5017301;28;20550;-66
2022/10/10 03:18:48;;;;;;;4.73;3.27;;;8.80;99.90;;;;;;5017575;28;20851;-64
2022/10/10 03:21:16;;;;;;;6.23;3.53;;;8.90;99.90;;;;;;5017293;28;20492;-64
2022/10/10 03:23:43;;;;;;;4.53;3.17;;;8.90;99.90;;;;;;5017113;28;20468;-64
2022/10/10 03:26:10;;;;;;;6.70;3.70;;;8.80;99.90;;;;;;5018099;28;20485;-66
2022/10/10 03:28:38;;;;;;;9.10;3.40;;;8.80;99.90;;;;;;5017504;28;20499;-65
2022/10/10 03:31:05;;;;;;;8.00;3.73;;;8.70;99.90;;;;;;5017903;28;20460;-65
2022/10/10 03:33:32;;;;;;;6.30;3.00;;;8.70;99.90;;;;;;5017432;28;20935;-65
2022/10/10 03:35:59;;;;;;;5.63;3.33;;;8.70;99.90;;;;;;5017085;28;20879;-67
2022/10/10 03:38:27;;;;;;;5.80;3.77;;;8.60;99.90;;;;;;5016664;28;20515;-65
2022/10/10 03:40:54;;;;;;;8.80;3.77;;;8.60;99.90;;;;;;5017240;28;20872;-65
2022/10/10 03:43:21;;;;;;;6.03;3.50;;;8.60;99.90;;;;;;5017092;28;20511;-66
2022/10/10 03:45:48;;;;;;;6.20;3.63;;;8.50;99.90;;;;;;5016617;28;20547;-65
2022/10/10 03:48:15;;;;;;;6.93;3.50;;;8.50;99.90;;;;;;5016970;28;20500;-64
2022/10/10 03:50:42;;;;;;;7.13;3.20;;;8.50;99.90;;;;;;5016522;28;20467;-65
2022/10/10 03:53:10;;;;;;;5.93;3.40;;;8.50;99.90;;;;;;5016514;28;20461;-65
2022/10/10 03:55:41;;;;;;;4.77;3.73;;;8.40;99.90;;;;;;5016145;28;20579;-65
2022/10/10 03:58:07;;;;;;;8.73;3.80;;;8.40;99.90;;;;;;5016454;28;20488;-65
2022/10/10 04:00:35;;;;;;;8.33;4.17;;;8.40;99.90;;;;;;5016795;28;20547;-65
2022/10/10 04:03:05;;;;;;;6.13;3.73;;;8.40;99.90;;;;;;5016617;28;20577;-65
2022/10/10 04:05:33;;;;;;;6.70;3.73;;;8.40;99.90;;;;;;5016414;28;21016;-65
2022/10/10 04:08:00;;;;;;;6.53;3.90;;;8.40;99.90;;;;;;5016675;28;20488;-65
2022/10/10 04:10:27;;;;;;;5.20;3.03;;;8.40;99.90;;;;;;5016442;28;20461;-65
2022/10/10 04:12:56;;;;;;;8.00;3.73;;;8.40;99.90;;;;;;5016478;28;20457;-64
2022/10/10 04:15:23;;;;;;;6.60;4.33;;;8.40;99.90;;;;;;5016352;28;20480;-64
2022/10/10 04:17:50;;;;;;;6.00;3.67;;;8.40;99.90;;;;;;5016025;28;20983;-66
2022/10/10 04:20:17;;;;;;;5.20;3.60;;;8.40;99.90;;;;;;5016135;28;20457;-64
2022/10/10 04:22:44;;;;;;;8.00;3.60;;;8.40;99.90;;;;;;5016116;28;20841;-65
2022/10/10 04:25:11;;;;;;;6.63;3.83;;;8.40;99.90;;;;;;5015885;28;20539;-65
2022/10/10 04:27:38;;;;;;;6.20;3.77;;;8.40;99.90;;;;;;5015758;28;20523;-64
2022/10/10 04:30:08;;;;;;;4.60;3.13;;;8.40;99.90;;;;;;5016083;28;20543;-64
2022/10/10 04:32:35;;;;;;;9.10;4.10;;;8.40;99.90;;;;;;5015690;28;20596;-64
2022/10/10 04:35:02;;;;;;;4.97;3.20;;;8.40;99.90;;;;;;5015869;28;20834;-64
2022/10/10 04:37:29;;;;;;;5.90;3.50;;;8.40;99.90;;;;;;5016115;28;20792;-64
2022/10/10 04:39:56;;;;;;;5.50;3.77;;;8.40;99.90;;;;;;5015890;28;20547;-64
2022/10/10 04:42:23;;;;;;;5.77;3.80;;;8.30;99.90;;;;;;5016002;28;20544;-64
2022/10/10 04:44:50;;;;;;;6.87;4.57;;;8.30;99.90;;;;;;5016109;28;20852;-64
2022/10/10 04:47:18;;;;;;;6.00;3.93;;;8.30;99.90;;;;;;5015607;28;20469;-65
2022/10/10 04:49:45;;;;;;;6.97;3.67;;;8.20;99.90;;;;;;5015292;28;20465;-64
2022/10/10 04:52:13;;;;;;;7.17;3.67;;;8.30;99.90;;;;;;5017058;28;20493;-65
2022/10/10 04:54:40;;;;;;;56.07;32.27;;;8.20;99.90;;;;;;5016618;28;20861;-66
2022/10/10 04:57:07;;;;;;;12.83;7.90;;;8.20;99.90;;;;;;5015396;28;20551;-66
2022/10/10 04:59:34;;;;;;;6.73;3.83;;;8.20;99.90;;;;;;5015609;28;20457;-66
2022/10/10 05:02:01;;;;;;;6.33;3.97;;;8.20;99.90;;;;;;5015604;28;20523;-65
2022/10/10 05:04:29;;;;;;;7.80;4.27;;;8.20;99.90;;;;;;5015787;28;20806;-66
2022/10/10 05:06:56;;;;;;;8.23;4.23;;;8.20;99.90;;;;;;5015260;28;20493;-66
2022/10/10 05:09:23;;;;;;;11.13;4.13;;;8.20;99.90;;;;;;5015569;28;20457;-66
2022/10/10 05:11:50;;;;;;;6.17;3.57;;;8.10;99.90;;;;;;5015412;28;20532;-66
2022/10/10 05:14:17;;;;;;;5.43;4.27;;;8.10;99.90;;;;;;5015772;28;20460;-66
2022/10/10 05:16:44;;;;;;;6.83;4.17;;;8.10;99.90;;;;;;5015282;28;20477;-66
2022/10/10 05:19:11;;;;;;;8.10;4.53;;;8.10;99.90;;;;;;5015083;28;20497;-66
2022/10/10 05:21:39;;;;;;;5.80;4.17;;;8.10;99.90;;;;;;5015072;28;20928;-66
2022/10/10 05:24:06;;;;;;;9.33;4.07;;;8.10;99.90;;;;;;5014931;28;20540;-66
2022/10/10 05:26:33;;;;;;;6.90;4.37;;;8.10;99.90;;;;;;5014988;28;20917;-66
2022/10/10 05:29:01;;;;;;;9.70;4.47;;;8.10;99.90;;;;;;5014923;28;20457;-66
2022/10/10 05:31:28;;;;;;;7.20;3.80;;;8.10;99.90;;;;;;5015126;28;20467;-66
2022/10/10 05:33:54;;;;;;;6.10;4.30;;;8.00;99.90;;;;;;5014920;28;21023;-66
2022/10/10 05:36:21;;;;;;;8.40;4.00;;;8.00;99.90;;;;;;5015070;28;20552;-66
2022/10/10 05:38:50;;;;;;;6.20;4.30;;;8.00;99.90;;;;;;5015037;28;20984;-65
2022/10/10 05:41:17;;;;;;;5.60;4.10;;;8.00;99.90;;;;;;5014704;28;20501;-66
2022/10/10 05:43:44;;;;;;;7.53;4.60;;;8.10;99.90;;;;;;5014889;28;20460;-65
2022/10/10 05:46:10;;;;;;;8.63;4.37;;;8.10;99.90;;;;;;5015100;28;20484;-66
2022/10/10 05:48:37;;;;;;;5.50;3.60;;;8.10;99.90;;;;;;5014784;28;20456;-66
2022/10/10 05:51:06;;;;;;;11.50;4.10;;;8.10;99.90;;;;;;5014827;28;20469;-65
2022/10/10 05:53:33;;;;;;;7.30;4.07;;;8.10;99.90;;;;;;5014527;28;20500;-66
2022/10/10 05:56:02;;;;;;;9.23;4.60;;;8.20;99.90;;;;;;5014281;28;20499;-65
2022/10/10 05:58:29;;;;;;;7.93;4.27;;;8.20;99.90;;;;;;5014578;28;20523;-65
2022/10/10 06:01:03;;;;;;;7.47;4.40;;;8.20;99.90;;;;;;5014192;28;20560;-66
2022/10/10 06:03:30;;;;;;;6.60;3.80;;;8.20;99.90;;;;;;5014852;28;20481;-65
2022/10/10 06:05:57;;;;;;;7.90;4.20;;;8.20;99.90;;;;;;5014416;28;20548;-65
2022/10/10 06:08:25;;;;;;;7.80;4.60;;;8.20;99.90;;;;;;5014417;28;20457;-66
2022/10/10 06:10:52;;;;;;;6.63;5.00;;;8.20;99.90;;;;;;5014498;28;20467;-65
2022/10/10 06:13:20;;;;;;;7.37;5.20;;;8.20;99.90;;;;;;5014521;28;20456;-65
2022/10/10 06:15:50;;;;;;;6.90;5.07;;;8.30;99.90;;;;;;5014551;28;20567;-65
2022/10/10 06:18:17;;;;;;;9.43;4.70;;;8.30;99.90;;;;;;5014184;28;20496;-65
2022/10/10 06:20:44;;;;;;;9.83;4.33;;;8.40;99.90;;;;;;5014554;28;20547;-65
2022/10/10 06:23:11;;;;;;;8.17;4.50;;;8.40;99.90;;;;;;5014633;28;20535;-67
2022/10/10 06:25:38;;;;;;;7.27;4.10;;;8.40;99.90;;;;;;5014338;28;20536;-66
2022/10/10 06:28:05;;;;;;;13.40;5.10;;;8.50;99.90;;;;;;5014054;28;20603;-66
2022/10/10 06:30:34;;;;;;;6.20;4.47;;;8.60;99.90;;;;;;5014141;28;20461;-65
2022/10/10 06:33:01;;;;;;;10.60;5.10;;;8.60;99.90;;;;;;5014132;28;20457;-65
2022/10/10 06:35:28;;;;;;;10.33;4.60;;;8.60;99.90;;;;;;5014386;28;20477;-65
2022/10/10 06:37:55;;;;;;;9.13;5.00;;;8.70;99.90;;;;;;5014138;28;20460;-65
2022/10/10 06:40:22;;;;;;;6.30;3.87;;;8.70;99.90;;;;;;5014468;28;20457;-65
2022/10/10 06:42:49;;;;;;;8.23;5.10;;;8.80;99.90;;;;;;5013942;28;20492;-65
2022/10/10 06:45:16;;;;;;;13.00;5.43;;;8.80;99.90;;;;;;5013847;28;20523;-65
2022/10/10 06:47:44;;;;;;;6.20;4.70;;;8.80;99.90;;;;;;5014437;28;20822;-65
2022/10/10 06:50:11;;;;;;;9.10;4.57;;;8.80;99.90;;;;;;5014634;28;20526;-65
2022/10/10 06:52:40;;;;;;;7.80;4.20;;;8.90;99.90;;;;;;5013918;28;20457;-65
2022/10/10 06:55:07;;;;;;;7.60;4.30;;;8.80;99.90;;;;;;5013950;28;20461;-65
2022/10/10 06:57:34;;;;;;;5.87;3.80;;;8.90;99.90;;;;;;5015108;28;20553;-65
2022/10/10 07:00:01;;;;;;;6.17;4.10;;;8.90;99.90;;;;;;5014431;28;20465;-65
2022/10/10 07:02:28;;;;;;;6.70;4.27;;;9.00;99.90;;;;;;5014699;28;20461;-66
2022/10/10 07:04:56;;;;;;;4.33;3.93;;;9.00;99.90;;;;;;5014069;28;20457;-65
2022/10/10 07:07:23;;;;;;;6.23;4.33;;;9.00;99.90;;;;;;5014333;28;20453;-66
2022/10/10 07:09:50;;;;;;;4.70;4.20;;;9.00;99.90;;;;;;5014294;28;20789;-67
2022/10/10 07:12:17;;;;;;;4.70;3.97;;;9.10;99.90;;;;;;5016030;28;20460;-66
2022/10/10 07:14:44;;;;;;;8.00;4.10;;;9.20;99.90;;;;;;5017742;28;20552;-66
2022/10/10 07:17:11;;;;;;;5.50;4.17;;;9.20;99.90;;;;;;5017759;28;20614;-66
2022/10/10 07:19:38;;;;;;;8.97;4.07;;;9.30;99.90;;;;;;5017508;28;20503;-66
2022/10/10 07:22:06;;;;;;;8.13;4.20;;;9.30;99.90;;;;;;5017351;28;20980;-66
2022/10/10 07:24:33;;;;;;;7.60;4.20;;;9.40;99.90;;;;;;5017618;28;20457;-65
2022/10/10 07:27:00;;;;;;;9.17;4.60;;;9.40;99.90;;;;;;5017799;28;20868;-65
2022/10/10 07:29:29;;;;;;;8.90;4.47;;;9.50;99.90;;;;;;5017702;28;20523;-67
2022/10/10 07:31:56;;;;;;;5.80;3.80;;;9.60;99.90;;;;;;5017217;28;20460;-65
2022/10/10 07:34:23;;;;;;;7.93;4.00;;;9.70;99.90;;;;;;5017211;28;20559;-65
2022/10/10 07:36:50;;;;;;;7.60;3.97;;;9.70;99.90;;;;;;5017663;28;20542;-66
2022/10/10 07:39:20;;;;;;;6.80;4.10;;;9.80;99.90;;;;;;5016859;28;20497;-66
2022/10/10 07:41:47;;;;;;;11.47;4.70;;;9.80;99.90;;;;;;5016889;28;20453;-66
2022/10/10 07:44:14;;;;;;;6.00;4.30;;;9.80;99.90;;;;;;5017054;28;20499;-66
2022/10/10 07:46:41;;;;;;;8.00;4.60;;;9.80;99.90;;;;;;5016881;28;20511;-65
2022/10/10 07:49:08;;;;;;;9.80;4.37;;;9.80;99.90;;;;;;5017114;28;20949;-66
2022/10/10 07:51:35;;;;;;;8.67;4.47;;;9.90;99.90;;;;;;5016594;28;20461;-66
2022/10/10 07:54:03;;;;;;;6.83;4.90;;;10.00;99.90;;;;;;5016842;28;20552;-66
2022/10/10 07:56:31;;;;;;;6.80;4.10;;;10.10;99.90;;;;;;5016126;28;20525;-66
2022/10/10 07:58:58;;;;;;;15.33;4.40;;;10.10;99.90;;;;;;5016415;28;20469;-66
2022/10/10 08:01:26;;;;;;;8.77;4.67;;;10.10;99.90;;;;;;5016839;28;20999;-66
2022/10/10 08:03:55;;;;;;;8.13;4.53;;;10.20;99.90;;;;;;5016693;28;20961;-66
2022/10/10 08:06:22;;;;;;;8.60;4.67;;;10.20;99.90;;;;;;5016923;28;20481;-66
2022/10/10 08:08:49;;;;;;;9.07;5.80;;;10.30;99.90;;;;;;5016505;28;20465;-66
2022/10/10 08:11:17;;;;;;;12.47;6.10;;;10.40;99.90;;;;;;5016711;28;20777;-66
2022/10/10 08:13:45;;;;;;;5.57;3.93;;;10.40;99.90;;;;;;5016334;28;20577;-66
2022/10/10 08:16:12;;;;;;;4.93;3.80;;;10.50;99.90;;;;;;5016237;28;20477;-66
2022/10/10 08:18:39;;;;;;;7.70;3.93;;;10.50;99.90;;;;;;5016241;28;20929;-66
2022/10/10 08:21:08;;;;;;;5.73;4.43;;;10.50;99.90;;;;;;5016187;28;20461;-64
2022/10/10 08:23:36;;;;;;;9.43;4.60;;;10.50;99.90;;;;;;5016465;28;20504;-65
2022/10/10 08:26:05;;;;;;;6.77;3.90;;;10.50;99.90;;;;;;5016454;28;20453;-66
2022/10/10 08:28:33;;;;;;;5.83;4.10;;;10.70;99.90;;;;;;5016841;28;20457;-66
2022/10/10 08:31:05;;;;;;;6.90;3.87;;;10.80;99.90;;;;;;5016190;28;20540;-66
2022/10/10 08:33:32;;;;;;;3.97;3.57;;;10.80;99.90;;;;;;5016110;28;20504;-66
2022/10/10 08:36:00;;;;;;;4.53;3.60;;;10.90;99.90;;;;;;5016168;28;20792;-66
2022/10/10 08:38:27;;;;;;;23.73;4.70;;;11.00;99.90;;;;;;5016321;28;20514;-66
2022/10/10 08:40:57;;;;;;;6.60;3.57;;;11.00;99.90;;;;;;5015920;28;20747;-66
2022/10/10 08:43:32;;;;;;;5.73;3.53;;;11.10;99.90;;;;;;5015357;28;20499;-66
2022/10/10 08:46:08;;;;;;;8.13;4.13;;;11.20;99.90;;;;;;5015960;28;20502;-66
2022/10/10 08:48:36;;;;;;;4.60;3.57;;;11.30;99.90;;;;;;5016012;28;20502;-66
2022/10/10 08:51:09;;;;;;;6.43;3.70;;;11.40;99.90;;;;;;5015841;28;20465;-66
2022/10/10 08:53:41;;;;;;;7.53;3.70;;;11.50;99.90;;;;;;5015969;28;20445;-66
2022/10/10 08:56:14;;;;;;;5.10;3.60;;;11.70;99.90;;;;;;5015966;28;20539;-65
2022/10/10 08:58:45;;;;;;;8.70;3.70;;;11.70;99.90;;;;;;5015404;28;20441;-65
2022/10/10 09:01:19;;;;;;;7.30;3.67;;;11.80;99.90;;;;;;5015326;28;20443;-66
2022/10/10 09:03:48;;;;;;;5.97;3.53;;;11.90;99.90;;;;;;5015454;28;20467;-67
2022/10/10 09:06:35;;;;;;;5.60;3.60;;;12.00;99.90;;;;;;5015975;28;20488;-66
2022/10/10 09:09:14;;;;;;;9.07;3.90;;;12.10;99.90;;;;;;5015613;28;20504;-66
2022/10/10 09:11:53;;;;;;;8.37;3.93;;;12.20;99.90;;;;;;5015473;28;20441;-67
2022/10/10 09:14:33;;;;;;;6.00;3.70;;;12.40;99.90;;;;;;5015173;28;20441;-66
2022/10/10 09:17:08;;;;;;;4.97;2.90;;;12.60;99.90;;;;;;5015549;28;20559;-65
2022/10/10 09:19:49;;;;;;;5.10;3.10;;;12.70;99.90;;;;;;5015548;28;20880;-65
2022/10/10 09:22:22;;;;;;;3.90;3.50;;;12.80;99.90;;;;;;5015201;28;20814;-66
2022/10/10 09:24:55;;;;;;;5.70;3.50;;;12.90;99.90;;;;;;5015120;28;20438;-66
2022/10/10 09:27:27;;;;;;;6.97;3.90;;;13.00;99.90;;;;;;5015263;28;20525;-65
2022/10/10 09:30:01;;;;;;;4.80;3.30;;;13.10;99.90;;;;;;5015375;28;20449;-65
2022/10/10 09:32:33;;;;;;;4.40;3.40;;;13.20;99.90;;;;;;5015107;28;20507;-65
2022/10/10 09:35:06;;;;;;;9.53;3.47;;;13.30;99.90;;;;;;5014853;28;20445;-65
2022/10/10 09:37:37;;;;;;;7.63;3.00;;;13.50;99.90;;;;;;5015958;28;20552;-66
2022/10/10 09:40:11;;;;;;;5.10;3.50;;;13.70;99.90;;;;;;5015174;28;20829;-65
2022/10/10 09:42:39;;;;;;;9.03;3.33;;;13.80;99.90;;;;;;5014893;28;20508;-65
2022/10/10 09:45:16;;;;;;;7.47;3.10;;;13.90;99.90;;;;;;5014928;28;20968;-65
2022/10/10 09:47:45;;;;;;;5.83;3.50;;;14.00;99.90;;;;;;5015187;28;20464;-67
2022/10/10 09:50:14;;;;;;;6.40;3.30;;;14.00;99.90;;;;;;5015296;28;20457;-65
2022/10/10 09:52:43;;;;;;;4.07;2.87;;;14.00;99.90;;;;;;5016390;28;20761;-66
2022/10/10 09:55:22;;;;;;;6.10;3.50;;;14.00;99.90;;;;;;5015993;28;20831;-65
2022/10/10 09:57:52;;;;;;;4.60;3.10;;;14.10;99.90;;;;;;5015287;28;20500;-67
2022/10/10 10:00:32;;;;;;;4.07;3.20;;;14.30;99.90;;;;;;5015263;28;20489;-66
2022/10/10 10:03:13;;;;;;;7.17;3.60;;;14.40;99.90;;;;;;5014847;28;20441;-66
2022/10/10 10:05:43;;;;;;;7.50;3.73;;;14.60;99.90;;;;;;5015549;28;20477;-66
2022/10/10 10:08:21;;;;;;;5.30;2.97;;;14.80;99.90;;;;;;5015425;28;20484;-64
2022/10/10 10:10:48;;;;;;;3.93;2.87;;;15.00;99.90;;;;;;5015014;28;20456;-65
2022/10/10 10:13:24;;;;;;;6.03;3.10;;;14.90;99.90;;;;;;5014890;28;20453;-65
2022/10/10 10:15:59;;;;;;;5.47;3.47;;;14.80;99.90;;;;;;5014644;28;20476;-67
2022/10/10 10:18:29;;;;;;;4.57;2.87;;;14.80;99.90;;;;;;5014926;28;20850;-66
2022/10/10 10:21:12;;;;;;;10.17;3.20;;;14.80;99.90;;;;;;5014550;28;20496;-65
2022/10/10 10:23:43;;;;;;;4.40;3.37;;;14.90;99.90;;;;;;5014183;28;20892;-65
2022/10/10 10:26:19;;;;;;;5.17;3.33;;;14.80;99.90;;;;;;5014964;28;20532;-66
2022/10/10 10:28:47;;;;;;;4.87;3.23;;;14.80;99.90;;;;;;5015363;28;20552;-66
2022/10/10 10:31:38;;;;;;;3.73;2.83;;;14.80;99.90;;;;;;5015813;28;20456;-66
2022/10/10 10:34:25;;;;;;;3.93;3.53;;;14.70;99.90;;;;;;5014353;28;20445;-66
2022/10/10 10:36:57;;;;;;;3.70;2.80;;;14.80;99.90;;;;;;5015008;28;20469;-66
2022/10/10 10:39:42;;;;;;;5.20;3.27;;;14.80;99.90;;;;;;5014567;28;20819;-66
2022/10/10 10:42:24;;;;;;;3.93;3.17;;;14.90;99.90;;;;;;5014380;28;20463;-65
2022/10/10 10:45:00;;;;;;;4.37;2.80;;;15.00;99.90;;;;;;5014333;28;20780;-65
2022/10/10 10:47:37;;;;;;;6.83;3.00;;;15.00;99.90;;;;;;5016093;28;20532;-66
2022/10/10 10:50:25;;;;;;;4.17;3.30;;;15.00;99.90;;;;;;5018346;28;20805;-66
2022/10/10 10:52:59;;;;;;;3.73;3.10;;;15.10;99.90;;;;;;5017968;28;20519;-65
2022/10/10 10:55:34;;;;;;;4.47;3.20;;;15.20;99.90;;;;;;5017748;28;20491;-65
2022/10/10 10:58:30;;;;;;;5.30;3.27;;;15.30;99.90;;;;;;5018007;28;20464;-65
2022/10/10 11:01:00;;;;;;;12.23;4.20;;;15.40;99.90;;;;;;4996704;28;20449;-66
2022/10/10 11:03:42;;;;;;;7.33;3.13;;;15.50;99.90;;;;;;5018281;28;20456;-68
2022/10/10 11:06:23;;;;;;;4.43;3.00;;;15.60;99.90;;;;;;5017598;28;20437;-67
2022/10/10 11:08:59;;;;;;;6.30;2.73;;;15.70;99.90;;;;;;5017744;28;20524;-65
2022/10/10 11:11:35;;;;;;;3.63;2.80;;;15.80;99.90;;;;;;5018099;28;20468;-65
2022/10/10 11:14:12;;;;;;;9.60;3.57;;;15.80;99.90;;;;;;5017599;28;20444;-65
2022/10/10 11:16:41;;;;;;;4.63;3.00;;;15.70;99.90;;;;;;5017621;28;20437;-66
2022/10/10 11:19:22;;;;;;;4.90;3.17;;;15.70;99.90;;;;;;5017130;28;20464;-65
2022/10/10 11:21:57;;;;;;;4.23;3.03;;;15.70;99.90;;;;;;5017801;28;20445;-65
2022/10/10 11:24:35;;;;;;;5.27;2.87;;;15.80;99.90;;;;;;5018147;28;20825;-66
2022/10/10 11:27:06;;;;;;;6.53;3.37;;;15.80;99.90;;;;;;5017335;28;20479;-66
2022/10/10 11:29:38;;;;;;;2.80;2.43;;;15.80;99.90;;;;;;5017104;28;20939;-66
2022/10/10 11:32:11;;;;;;;4.40;2.97;;;15.90;99.90;;;;;;5016980;28;20544;-65
2022/10/10 11:34:44;;;;;;;6.07;3.50;;;15.90;99.90;;;;;;5017160;28;20445;-67
2022/10/10 11:37:17;;;;;;;3.17;2.23;;;16.00;99.90;;;;;;5017409;28;20547;-73
2022/10/10 11:39:52;;;;;;;5.70;2.83;;;16.10;99.90;;;;;;5017618;28;20495;-74
2022/10/10 11:42:25;;;;;;;6.93;3.13;;;16.30;99.90;;;;;;5017193;28;20451;-74
2022/10/10 11:44:57;;;;;;;8.50;3.40;;;16.40;99.90;;;;;;5017256;28;20507;-73
2022/10/10 11:47:30;;;;;;;5.70;3.20;;;16.60;99.90;;;;;;5016833;28;20438;-74
2022/10/10 11:50:05;;;;;;;5.57;3.10;;;17.00;99.90;;;;;;5016806;28;20849;-74
2022/10/10 11:52:40;;;;;;;4.27;2.77;;;17.40;99.90;;;;;;5016339;28;20445;-74
2022/10/10 11:55:15;;;;;;;4.33;2.90;;;18.00;99.90;;;;;;5016485;28;20441;-72
2022/10/10 11:57:47;;;;;;;4.87;2.50;;;18.70;99.90;;;;;;5015721;28;20748;-74
2022/10/10 12:00:16;;;;;;;8.60;2.30;;;19.60;99.90;;;;;;5016422;28;20507;-74
2022/10/10 12:02:45;;;;;;;5.93;2.73;;;20.60;99.90;;;;;;5016551;28;20527;-73
2022/10/10 12:05:22;;;;;;;7.43;3.10;;;21.40;99.90;;;;;;5016420;28;20500;-74
2022/10/10 12:08:03;;;;;;;4.47;2.70;;;22.30;99.90;;;;;;5017201;28;20441;-75
2022/10/10 12:10:35;;;;;;;3.77;2.80;;;22.50;99.90;;;;;;5016443;28;20441;-74
2022/10/10 12:20:02;;;;;;;4.40;2.40;;;23.40;94.10;;;;;;4936941;29;20468;-74
2022/10/10 12:22:29;;;;;;;5.03;3.00;;;23.70;93.40;;;;;;4975019;28;20509;-74
2022/10/10 12:25:23;;;;;;;3.73;3.13;;;23.80;90.60;;;;;;4974925;28;20459;-74
2022/10/10 12:28:06;;;;;;;3.77;2.23;;;23.90;90.00;;;;;;4975693;28;20550;-74
2022/10/10 12:30:33;;;;;;;3.20;2.40;;;23.90;88.60;;;;;;4975725;28;20522;-73
